Time;durP1;ratioP1;P1;durP2;ratioP2;P2;SDS_P1;SDS_P2;PMS_P1;PMS_P2;Temp;Humidity;BMP_temperature;BMP_pressure;BME280_temperature;BME280_humidity;BME280_pressure;Samples;Min_cycle;Max_cycle;Signal;HPM_P1;HPM_P2
2021/07/06 06:15:51;;;;;;;228.87;219.87;;;17.50;99.90;;;;;;6136791;22;20474;-80
2021/07/06 06:27:55;;;;;;;257.37;246.87;;;17.70;99.90;;;;;;6148380;23;20413;-86
2021/07/06 06:30:42;;;;;;;244.30;234.37;;;17.70;99.90;;;;;;6214276;23;20438;-85
2021/07/06 06:33:09;;;;;;;235.80;225.90;;;17.70;99.90;;;;;;6224471;23;20912;-87
2021/07/06 06:35:46;;;;;;;225.70;216.50;;;17.70;99.90;;;;;;6247646;22;20418;-87
2021/07/06 06:38:48;;;;;;;223.27;214.17;;;17.70;99.90;;;;;;6287991;22;20468;-86
2021/07/06 06:51:01;;;;;;;250.17;240.07;;;17.70;99.90;;;;;;6149471;23;20405;-85
2021/07/06 06:53:28;;;;;;;259.53;249.13;;;17.70;99.90;;;;;;6255427;23;20407;-85
2021/07/06 06:55:59;;;;;;;272.77;261.83;;;17.70;99.90;;;;;;6254619;23;20395;-85
2021/07/06 06:59:08;;;;;;;266.37;255.77;;;17.70;99.90;;;;;;6255999;23;20399;-87
2021/07/06 07:02:16;;;;;;;192.53;184.23;;;17.80;99.90;;;;;;6245269;23;20403;-85
2021/07/06 07:08:01;;;;;;;;;;;;;;;;;;;;;
2021/07/06 07:10:50;;;;;;;189.77;181.43;;;18.10;99.90;;;;;;6245375;23;20400;-86
2021/07/06 07:13:51;;;;;;;202.50;194.10;;;18.00;99.90;;;;;;6234433;23;20400;-86
2021/07/06 07:16:18;;;;;;;187.17;178.67;;;18.10;99.90;;;;;;6245390;23;20399;-88
2021/07/06 07:19:13;;;;;;;176.20;168.40;;;18.20;99.90;;;;;;6255632;23;20899;-88
2021/07/06 07:21:47;;;;;;;186.17;178.00;;;18.20;99.90;;;;;;6239372;23;20860;-87
2021/07/06 07:24:23;;;;;;;193.30;185.10;;;18.20;99.90;;;;;;6242717;22;20446;-88
2021/07/06 07:26:57;;;;;;;182.17;174.37;;;18.30;99.90;;;;;;6243997;23;20415;-86
2021/07/06 07:29:33;;;;;;;186.30;178.40;;;18.30;99.90;;;;;;6245407;23;20406;-88
2021/07/06 07:32:05;;;;;;;184.17;176.33;;;18.30;99.90;;;;;;6207923;23;20443;-87
2021/07/06 07:34:34;;;;;;;183.07;174.97;;;18.40;99.90;;;;;;6247824;23;20422;-79
2021/07/06 07:37:10;;;;;;;195.73;187.20;;;18.30;99.90;;;;;;6247186;23;20407;-85
2021/07/06 07:39:43;;;;;;;175.93;168.07;;;18.30;99.90;;;;;;6246987;22;20403;-85
2021/07/06 07:42:19;;;;;;;183.67;175.83;;;18.40;99.90;;;;;;6245607;23;20400;-85
2021/07/06 07:44:51;;;;;;;208.47;199.67;;;18.40;99.90;;;;;;6247007;23;20457;-84
2021/07/06 07:47:26;;;;;;;207.97;198.77;;;18.40;99.90;;;;;;6257318;23;20781;-85
2021/07/06 07:59:31;;;;;;;;;;;;;;;;;;;;;
2021/07/06 08:05:10;;;;;;;202.87;194.47;;;18.60;99.90;;;;;;6028351;23;20540;-79
2021/07/06 10:54:30;;;;;;;;;;;;;;;;;;;;;
2021/07/06 11:33:01;;;;;;;43.60;2.53;;;27.30;1.00;;;;;;5907990;23;20448;-84
2021/07/06 11:46:05;;;;;;;;;;;;;;;;;;;;;
2021/07/06 11:48:54;;;;;;;46.47;10.43;;;28.70;1.00;;;;;;5953174;24;20416;-85
2021/07/06 11:52:02;;;;;;;51.13;20.63;;;27.50;1.00;;;;;;5961071;24;20495;-85
2021/07/06 11:55:11;;;;;;;44.07;7.03;;;26.60;1.00;;;;;;6027834;23;20449;-84
2021/07/06 11:57:50;;;;;;;42.73;2.80;;;26.90;1.00;;;;;;6161671;23;20417;-84
2021/07/06 12:03:40;;;;;;;;;;;;;;;;;;;;;
2021/07/06 12:06:34;;;;;;;41.60;3.13;;;27.70;1.00;;;;;;6201984;23;20486;-83
2021/07/06 12:09:29;;;;;;;;;;;;;;;;;;;;;
2021/07/06 12:21:36;;;;;;;47.33;5.07;;;27.70;1.00;;;;;;6314957;22;20444;-84
2021/07/06 12:24:06;;;;;;;42.23;3.70;;;28.40;1.00;;;;;;6307767;22;20447;-85
2021/07/06 12:26:36;;;;;;;42.07;4.13;;;29.00;1.00;;;;;;6316568;22;20492;-85
2021/07/06 12:29:05;;;;;;;43.50;4.10;;;29.10;1.00;;;;;;6308161;22;20398;-85
2021/07/06 12:31:44;;;;;;;47.10;4.83;;;29.40;1.00;;;;;;6318696;22;20402;-85
2021/07/06 12:34:34;;;;;;;46.43;11.70;;;27.90;1.00;;;;;;6318272;22;20405;-84
2021/07/06 12:37:08;;;;;;;46.00;4.90;;;27.50;1.00;;;;;;6318595;22;20402;-86
2021/07/06 12:39:39;;;;;;;46.27;4.47;;;26.60;1.00;;;;;;6307908;22;20449;-85
2021/07/06 12:42:19;;;;;;;44.40;4.30;;;26.60;1.00;;;;;;6306002;22;20405;-85
2021/07/06 12:44:49;;;;;;;42.93;3.77;;;26.60;1.00;;;;;;6318158;22;20466;-84
2021/07/06 12:47:26;;;;;;;46.60;12.33;;;27.10;1.00;;;;;;6318273;22;20467;-85
2021/07/06 12:50:05;;;;;;;41.97;11.87;;;27.50;1.00;;;;;;6317900;22;20412;-85
2021/07/06 12:52:46;;;;;;;52.03;34.00;;;26.80;1.00;;;;;;6307563;22;20402;-83
2021/07/06 12:55:22;;;;;;;42.00;3.13;;;25.90;1.00;;;;;;6307854;22;20735;-85
2021/07/06 12:58:13;;;;;;;45.40;3.47;;;25.40;1.00;;;;;;6316655;22;20880;-84
2021/07/06 13:00:45;;;;;;;42.53;9.17;;;25.20;1.00;;;;;;6307868;22;20398;-84
2021/07/06 13:03:22;;;;;;;40.80;2.60;;;24.70;1.00;;;;;;6307906;22;20484;-85
2021/07/06 13:06:10;;;;;;;41.63;3.83;;;24.90;1.00;;;;;;6322008;22;20447;-84
2021/07/06 13:08:41;;;;;;;36.30;2.10;;;24.60;1.00;;;;;;6349161;22;20407;-85
2021/07/06 13:11:23;;;;;;;37.47;2.33;;;26.00;1.00;;;;;;6347594;22;20473;-84
2021/07/06 13:13:55;;;;;;;37.27;2.17;;;26.70;1.00;;;;;;6349007;22;20887;-84
2021/07/06 13:16:31;;;;;;;41.93;3.03;;;26.90;1.00;;;;;;6338153;22;20414;-86
2021/07/06 13:18:59;;;;;;;40.40;1.80;;;27.60;1.00;;;;;;6339102;22;20479;-81
2021/07/06 13:21:32;;;;;;;40.27;2.83;;;28.60;1.00;;;;;;6339098;22;20395;-85
2021/07/06 13:24:24;;;;;;;40.90;5.87;;;28.00;1.00;;;;;;6348899;22;20903;-84
2021/07/06 13:26:52;;;;;;;42.03;3.60;;;27.30;1.00;;;;;;6336517;22;20417;-84
2021/07/06 13:29:27;;;;;;;45.13;4.47;;;27.70;1.00;;;;;;6349019;22;20400;-84
2021/07/06 13:32:01;;;;;;;47.07;7.63;;;28.40;1.00;;;;;;6348710;22;20415;-85
2021/07/06 13:34:32;;;;;;;47.80;4.70;;;27.50;1.00;;;;;;6349376;22;20422;-84
2021/07/06 13:37:32;;;;;;;;;;;;;;;;;;;;;
2021/07/06 13:40:26;;;;;;;;;;;;;;;;;;;;;
2021/07/06 13:42:59;;;;;;;42.27;4.27;;;29.20;1.00;;;;;;6343702;22;20400;-85
2021/07/06 13:45:26;;;;;;;46.70;4.10;;;29.30;1.00;;;;;;6349275;22;20817;-86
2021/07/06 13:48:24;;;;;;;47.50;4.10;;;28.90;1.00;;;;;;6349287;22;20400;-84
2021/07/06 13:51:02;;;;;;;48.80;4.63;;;28.10;1.00;;;;;;6330545;22;20414;-83
2021/07/06 13:53:48;;;;;;;45.63;5.00;;;28.00;1.00;;;;;;6338833;22;20395;-84
2021/07/06 13:56:33;;;;;;;46.23;3.90;;;27.50;1.00;;;;;;6337215;22;20396;-84
2021/07/06 13:59:09;;;;;;;46.77;5.03;;;28.20;1.00;;;;;;6348648;22;20424;-84
2021/07/06 14:01:51;;;;;;;45.33;4.57;;;27.80;1.00;;;;;;6348163;22;20432;-85
2021/07/06 14:04:22;;;;;;;45.77;4.17;;;27.90;1.00;;;;;;6338750;22;20403;-84
2021/07/06 14:07:12;;;;;;;45.30;5.47;;;27.00;1.00;;;;;;6348222;22;20439;-85
2021/07/06 14:09:41;;;;;;;45.60;4.97;;;25.90;1.00;;;;;;6349083;22;20401;-83
2021/07/06 14:12:15;;;;;;;44.23;4.30;;;25.70;1.00;;;;;;6336949;22;20488;-83
2021/07/06 14:14:58;;;;;;;;;;;;;;;;;;;;;
2021/07/06 14:17:27;;;;;;;40.87;4.60;;;26.20;1.00;;;;;;6330823;22;20480;-83
2021/07/06 14:19:58;;;;;;;40.90;2.90;;;27.40;1.00;;;;;;6338621;22;20864;-84
2021/07/06 14:22:25;;;;;;;42.30;4.40;;;27.50;1.00;;;;;;6338151;22;20442;-76
2021/07/06 14:24:51;;;;;;;42.13;3.50;;;27.60;1.00;;;;;;6338595;22;20420;-76
2021/07/06 14:27:20;;;;;;;45.60;2.50;;;27.70;1.00;;;;;;6337168;22;20397;-75
2021/07/06 14:29:47;;;;;;;44.40;6.17;;;27.90;1.00;;;;;;6338201;22;20491;-76
2021/07/06 14:32:14;;;;;;;50.20;4.80;;;27.10;1.00;;;;;;6338348;22;20397;-76
2021/07/06 14:34:41;;;;;;;51.47;5.90;;;27.20;1.00;;;;;;6338575;22;20468;-76
2021/07/06 14:37:09;;;;;;;53.00;4.87;;;27.50;1.00;;;;;;6338625;22;20439;-75
2021/07/06 14:39:36;;;;;;;52.20;5.10;;;27.70;1.00;;;;;;6338597;22;20400;-75
2021/07/06 14:42:05;;;;;;;47.53;5.27;;;26.60;1.00;;;;;;6338712;22;20757;-74
2021/07/06 14:44:33;;;;;;;45.10;4.40;;;26.30;1.00;;;;;;6340171;22;20395;-74
2021/07/06 14:47:01;;;;;;;44.57;4.00;;;26.00;1.00;;;;;;6340048;22;20471;-75
2021/07/06 14:49:28;;;;;;;45.03;4.13;;;25.70;1.00;;;;;;6340485;22;20428;-76
2021/07/06 14:51:55;;;;;;;41.77;3.97;;;25.40;1.00;;;;;;6340168;22;20483;-75
2021/07/06 14:54:21;;;;;;;41.37;3.40;;;25.50;1.00;;;;;;6350661;22;20740;-74
2021/07/06 14:56:48;;;;;;;43.07;2.33;;;25.70;1.00;;;;;;6338891;22;20400;-74
2021/07/06 14:59:15;;;;;;;43.83;3.70;;;25.10;1.00;;;;;;6340383;22;20401;-80
2021/07/06 15:01:43;;;;;;;41.03;2.93;;;24.90;1.00;;;;;;6340032;22;20456;-80
2021/07/06 15:04:10;;;;;;;43.88;2.90;;;25.00;1.00;;;;;;6350711;22;20435;-81
2021/07/06 15:06:37;;;;;;;43.10;3.07;;;24.70;1.00;;;;;;6339423;22;20194;-80
2021/07/06 15:09:04;;;;;;;43.17;5.00;;;24.70;1.00;;;;;;6350908;22;20408;-80
2021/07/06 15:11:31;;;;;;;40.43;3.40;;;24.50;1.00;;;;;;6338382;22;20397;-80
2021/07/06 15:13:59;;;;;;;40.40;2.70;;;25.00;1.00;;;;;;6350825;22;20864;-81
2021/07/06 15:16:29;;;;;;;39.20;3.03;;;26.20;1.00;;;;;;6339964;22;20396;-81
2021/07/06 15:18:57;;;;;;;40.83;2.87;;;25.80;1.00;;;;;;6350390;22;20407;-81
2021/07/06 15:21:24;;;;;;;40.37;3.47;;;25.50;1.00;;;;;;6339768;22;20396;-81
2021/07/06 15:23:52;;;;;;;45.90;3.17;;;25.20;1.00;;;;;;6339707;22;20415;-75
2021/07/06 15:26:19;;;;;;;40.50;3.17;;;25.70;1.00;;;;;;6338504;22;20477;-75
2021/07/06 15:28:46;;;;;;;40.57;3.00;;;25.80;1.00;;;;;;6339915;22;20397;-76
2021/07/06 15:31:13;;;;;;;40.60;2.90;;;25.00;1.00;;;;;;6350224;22;20774;-79
2021/07/06 15:33:41;;;;;;;41.80;2.50;;;25.20;1.00;;;;;;6350714;22;20441;-78
2021/07/06 15:36:10;;;;;;;42.47;2.70;;;25.80;1.00;;;;;;6339661;22;20767;-80
2021/07/06 15:38:43;;;;;;;43.07;2.87;;;26.20;1.00;;;;;;6339545;22;20403;-80
2021/07/06 15:41:09;;;;;;;43.30;2.40;;;25.80;1.00;;;;;;6338336;22;20399;-79
2021/07/06 15:43:39;;;;;;;41.40;2.17;;;26.30;1.00;;;;;;6339952;22;20785;-84
2021/07/06 15:46:06;;;;;;;43.00;3.50;;;27.00;1.00;;;;;;6339608;22;20967;-81
2021/07/06 15:48:32;;;;;;;43.80;4.03;;;27.50;1.00;;;;;;6340050;22;20484;-84
2021/07/06 15:50:59;;;;;;;44.30;2.93;;;27.80;1.00;;;;;;6340031;22;20483;-76
2021/07/06 15:53:27;;;;;;;45.93;3.87;;;28.00;1.00;;;;;;6339940;22;20392;-84
2021/07/06 15:55:54;;;;;;;46.50;7.30;;;27.40;1.00;;;;;;6337836;22;21298;-79
2021/07/06 15:58:21;;;;;;;47.50;2.60;;;26.50;1.00;;;;;;6339915;22;20402;-82
2021/07/06 16:00:48;;;;;;;51.10;3.43;;;26.10;1.00;;;;;;6339668;22;20512;-82
2021/07/06 16:03:15;;;;;;;45.30;3.70;;;26.90;1.00;;;;;;6350178;22;20415;-79
2021/07/06 16:05:41;;;;;;;46.13;2.20;;;27.60;1.00;;;;;;6339217;22;20441;-82
2021/07/06 16:08:08;;;;;;;48.57;2.37;;;28.60;1.00;;;;;;6339994;22;20403;-76
2021/07/06 16:10:36;;;;;;;48.73;4.30;;;28.20;1.00;;;;;;6338903;22;20403;-83
2021/07/06 16:13:03;;;;;;;49.47;2.73;;;28.00;1.00;;;;;;6339381;22;20625;-80
2021/07/06 16:15:32;;;;;;;50.57;3.70;;;26.20;1.00;;;;;;6339843;22;20401;-78
2021/07/06 16:17:58;;;;;;;48.33;4.23;;;25.50;1.00;;;;;;6340005;22;20479;-83
2021/07/06 16:20:26;;;;;;;53.93;2.90;;;25.20;1.00;;;;;;6339835;22;20402;-82
2021/07/06 16:22:54;;;;;;;47.10;2.70;;;24.90;1.00;;;;;;6339994;22;20732;-76
2021/07/06 16:25:24;;;;;;;44.50;2.60;;;24.40;1.00;;;;;;6349608;22;20478;-84
2021/07/06 16:27:53;;;;;;;45.30;2.90;;;24.10;1.00;;;;;;6338106;22;20397;-82
2021/07/06 16:30:22;;;;;;;42.30;2.80;;;24.00;1.00;;;;;;6339568;22;20404;-83
2021/07/06 16:32:54;;;;;;;39.40;2.70;;;24.50;1.00;;;;;;6339241;22;20484;-83
2021/07/06 16:35:22;;;;;;;39.30;2.00;;;24.90;1.00;;;;;;6339158;22;20404;-83
2021/07/06 16:37:53;;;;;;;44.03;2.80;;;24.90;1.00;;;;;;6339419;22;20404;-83
2021/07/06 16:40:20;;;;;;;43.70;2.90;;;25.40;1.00;;;;;;6349848;22;20419;-82
2021/07/06 16:42:47;;;;;;;43.80;3.20;;;25.20;1.00;;;;;;6346222;22;20500;-82
2021/07/06 16:45:22;;;;;;;40.87;3.03;;;25.20;1.00;;;;;;6338125;22;20509;-83
2021/07/06 16:47:52;;;;;;;40.57;2.70;;;25.30;1.00;;;;;;6337814;22;20404;-80
2021/07/06 16:50:18;;;;;;;40.13;2.80;;;25.50;1.00;;;;;;6337623;22;20724;-80
2021/07/06 18:01:22;;;;;;;36.20;2.83;;;22.80;1.00;;;;;;6155928;23;20802;-84
2021/07/06 18:03:54;;;;;;;32.90;2.40;;;22.40;1.00;;;;;;6150323;23;20413;-84
2021/07/06 18:06:23;;;;;;;35.17;3.07;;;22.20;1.00;;;;;;6261412;22;20920;-85
2021/07/06 18:09:32;;;;;;;;;;;;;;;;;;;;;
2021/07/06 18:12:14;;;;;;;32.70;2.47;;;21.70;1.00;;;;;;6212504;22;20415;-84
2021/07/06 18:56:12;;;;;;;27.97;2.50;;;20.40;8.00;;;;;;5928975;23;20187;-84
2021/07/06 18:59:30;;;;;;;27.90;3.83;;;20.30;8.30;;;;;;6222706;23;20172;-84
2021/07/06 19:07:44;;;;;;;26.40;2.40;;;19.90;7.90;;;;;;6209698;23;20443;-83
2021/07/06 19:10:21;;;;;;;25.87;2.20;;;19.80;8.20;;;;;;6222957;23;20440;-84
2021/07/06 19:12:52;;;;;;;25.70;2.33;;;19.70;8.40;;;;;;6221870;23;20929;-84
2021/07/06 19:15:24;;;;;;;27.20;2.53;;;19.60;8.60;;;;;;6213309;23;20451;-84
2021/07/06 19:18:00;;;;;;;27.43;2.00;;;19.40;9.90;;;;;;6223210;23;20499;-84
2021/07/06 19:21:04;;;;;;;23.70;2.17;;;19.30;10.60;;;;;;6223219;23;20503;-82
2021/07/06 19:26:42;;;;;;;27.43;2.00;;;19.30;11.10;;;;;;6190229;23;20439;-83
2021/07/06 19:32:25;;;;;;;;;;;;;;;;;;;;;
2021/07/06 19:34:52;;;;;;;23.27;2.30;;;19.20;10.10;;;;;;6147672;23;20982;-81
2021/07/06 19:37:27;;;;;;;21.60;2.10;;;19.00;11.50;;;;;;6212967;23;20475;-83
2021/07/06 19:40:11;;;;;;;23.53;2.33;;;19.00;11.50;;;;;;6222822;23;20805;-84
2021/07/06 19:42:41;;;;;;;24.40;2.50;;;18.70;13.10;;;;;;6221331;23;20408;-83
2021/07/06 19:45:25;;;;;;;21.23;2.30;;;18.40;18.60;;;;;;6213078;23;20401;-85
2021/07/06 19:47:56;;;;;;;22.03;2.13;;;18.00;19.50;;;;;;6211992;23;20494;-83
2021/07/06 19:50:50;;;;;;;20.20;2.30;;;17.80;20.50;;;;;;6223082;23;20408;-84
2021/07/06 19:53:24;;;;;;;22.10;2.43;;;17.60;22.50;;;;;;6075022;23;20417;-83
2021/07/06 19:55:54;;;;;;;22.40;2.47;;;17.40;23.10;;;;;;6114021;23;20443;-84
2021/07/06 19:58:30;;;;;;;22.33;2.30;;;17.30;24.50;;;;;;6212944;23;20706;-82
2021/07/06 20:01:11;;;;;;;25.03;2.50;;;17.30;24.00;;;;;;6230984;22;20435;-82
2021/07/06 20:03:41;;;;;;;21.67;3.17;;;17.00;25.60;;;;;;6348709;22;20405;-82
2021/07/06 20:06:09;;;;;;;20.20;2.10;;;17.00;28.20;;;;;;6338391;22;20954;-82
2021/07/06 20:08:42;;;;;;;22.80;2.73;;;16.80;29.70;;;;;;6338573;22;20401;-82
2021/07/06 20:11:13;;;;;;;27.60;3.20;;;16.70;32.20;;;;;;6347445;22;20729;-82
2021/07/06 20:13:59;;;;;;;25.73;4.00;;;16.60;32.10;;;;;;6349205;22;20408;-82
2021/07/06 20:16:42;;;;;;;20.30;2.43;;;16.50;35.30;;;;;;6338431;22;20412;-82
2021/07/06 20:19:12;;;;;;;19.03;3.10;;;16.30;38.40;;;;;;6338342;22;20758;-83
2021/07/06 20:21:52;;;;;;;21.53;2.80;;;16.20;38.90;;;;;;6349040;22;20462;-82
2021/07/06 20:24:19;;;;;;;21.67;3.03;;;16.10;39.20;;;;;;6338743;22;20852;-83
2021/07/06 20:27:04;;;;;;;;;;;;;;;;;;;;;
2021/07/06 20:29:47;;;;;;;22.37;2.90;;;16.20;41.00;;;;;;6348766;22;20459;-83
2021/07/06 20:32:24;;;;;;;23.23;3.27;;;16.10;44.80;;;;;;6338794;22;20397;-83
2021/07/06 20:34:59;;;;;;;20.63;2.93;;;16.20;46.90;;;;;;6348426;22;20412;-82
2021/07/06 20:40:24;;;;;;;17.73;3.33;;;16.10;47.20;;;;;;6322114;22;20408;-82
2021/07/06 20:43:00;;;;;;;19.53;3.10;;;16.10;47.30;;;;;;6347029;22;20401;-83
2021/07/06 20:45:27;;;;;;;22.67;3.50;;;16.00;47.90;;;;;;6338729;22;20396;-84
2021/07/06 20:48:26;;;;;;;18.27;3.03;;;15.90;48.70;;;;;;6348853;22;20493;-82
2021/07/06 20:50:58;;;;;;;22.40;3.30;;;15.80;49.80;;;;;;6319377;22;20491;-83
2021/07/06 20:53:31;;;;;;;17.37;4.27;;;15.70;51.80;;;;;;6349007;22;20401;-83
2021/07/06 20:56:12;;;;;;;17.23;3.13;;;15.60;54.30;;;;;;6336455;22;20393;-84
2021/07/06 20:59:08;;;;;;;16.30;3.50;;;15.50;57.80;;;;;;6348520;22;20437;-84
2021/07/06 21:01:57;;;;;;;;;;;;;;;;;;;;;
2021/07/06 21:04:45;;;;;;;15.17;3.60;;;15.20;65.80;;;;;;6277645;22;20408;-83
2021/07/06 21:07:16;;;;;;;18.63;5.00;;;15.10;67.00;;;;;;6181855;23;20449;-81
2021/07/06 21:09:53;;;;;;;17.67;5.40;;;15.10;78.30;;;;;;6259053;22;20402;-82
2021/07/06 21:12:36;;;;;;;17.20;5.47;;;14.90;82.80;;;;;;6315737;22;20394;-83
2021/07/06 21:15:13;;;;;;;17.50;4.60;;;14.80;77.70;;;;;;6306999;22;20407;-83
2021/07/06 21:17:46;;;;;;;19.90;4.13;;;14.70;75.10;;;;;;6317113;22;20440;-82
2021/07/06 21:20:20;;;;;;;16.43;3.80;;;14.70;74.60;;;;;;6307109;22;20698;-84
2021/07/06 21:23:00;;;;;;;20.43;4.33;;;14.50;75.80;;;;;;6306376;22;20403;-83
2021/07/06 21:25:29;;;;;;;15.77;4.93;;;14.50;76.50;;;;;;6316994;22;20471;-84
2021/07/06 21:27:58;;;;;;;15.40;4.20;;;14.50;80.30;;;;;;6314980;22;20437;-83
2021/07/06 21:30:35;;;;;;;17.20;4.70;;;14.40;79.30;;;;;;6307040;22;20398;-84
2021/07/06 21:33:09;;;;;;;27.80;5.53;;;14.30;80.10;;;;;;6316937;22;20714;-82
2021/07/06 21:35:38;;;;;;;19.80;5.00;;;14.30;80.90;;;;;;6306639;22;20402;-82
2021/07/06 21:38:13;;;;;;;18.97;4.80;;;14.30;83.10;;;;;;6306420;22;20877;-83
2021/07/06 21:40:48;;;;;;;14.47;5.20;;;14.20;85.70;;;;;;6305661;22;20407;-82
2021/07/06 21:43:26;;;;;;;;;;;;;;;;;;;;;
2021/07/06 21:45:59;;;;;;;20.63;5.80;;;14.10;86.00;;;;;;6318073;22;20480;-83
2021/07/06 21:48:34;;;;;;;19.17;5.23;;;14.10;88.40;;;;;;6307059;22;20925;-82
2021/07/06 21:51:16;;;;;;;14.80;5.90;;;14.00;86.70;;;;;;6307487;22;20398;-84
2021/07/06 21:53:59;;;;;;;;;;;;;;;;;;;;;
2021/07/06 21:57:01;;;;;;;;;;;;;;;;;;;;;
2021/07/06 22:02:22;;;;;;;15.80;8.03;;;13.90;92.60;;;;;;6296691;22;20726;-82
2021/07/06 22:04:51;;;;;;;14.83;7.40;;;13.80;91.80;;;;;;6316685;22;20406;-83
2021/07/06 22:07:26;;;;;;;17.57;10.60;;;13.80;91.60;;;;;;6348845;22;20485;-83
2021/07/06 22:10:09;;;;;;;20.93;10.43;;;13.80;94.40;;;;;;6338484;22;20396;-84
2021/07/06 22:12:58;;;;;;;21.70;10.53;;;13.60;94.90;;;;;;6337390;22;20409;-83
2021/07/06 22:18:54;;;;;;;;;;;;;;;;;;;;;
2021/07/06 22:21:28;;;;;;;24.30;22.00;;;13.50;99.90;;;;;;6192350;23;20741;-83
2021/07/06 22:24:02;;;;;;;23.33;21.23;;;13.40;99.90;;;;;;6292686;22;20465;-83
2021/07/06 22:26:48;;;;;;;21.20;18.93;;;13.40;99.90;;;;;;6336876;22;20405;-83
2021/07/06 22:29:33;;;;;;;20.33;18.20;;;13.30;99.90;;;;;;6348873;22;20446;-83
2021/07/06 22:32:04;;;;;;;23.23;20.67;;;13.10;99.90;;;;;;6348781;22;20405;-83
2021/07/06 22:34:41;;;;;;;28.57;26.20;;;13.00;99.90;;;;;;6348676;22;20405;-82
2021/07/06 22:37:15;;;;;;;28.53;26.13;;;13.20;99.90;;;;;;6348614;22;20400;-82
2021/07/06 22:39:46;;;;;;;36.33;25.20;;;13.10;99.90;;;;;;6268349;22;20487;-82
2021/07/06 22:42:23;;;;;;;24.90;22.50;;;13.00;99.90;;;;;;6336778;22;20397;-82
2021/07/06 22:44:53;;;;;;;28.83;26.33;;;13.10;99.90;;;;;;6348632;22;20404;-85
2021/07/06 22:47:23;;;;;;;29.50;27.37;;;13.10;99.90;;;;;;6338112;22;20493;-82
2021/07/06 22:49:52;;;;;;;30.93;28.43;;;13.10;99.90;;;;;;6338665;22;20403;-82
2021/07/06 22:52:21;;;;;;;34.90;32.03;;;13.20;99.90;;;;;;6348538;22;21030;-82
2021/07/06 22:54:49;;;;;;;27.77;25.27;;;13.20;99.90;;;;;;6338679;22;20398;-83
2021/07/06 22:57:31;;;;;;;23.17;21.17;;;13.10;99.90;;;;;;6336699;22;20873;-82
2021/07/06 23:00:03;;;;;;;24.30;20.13;;;13.00;99.90;;;;;;6348798;22;20795;-83
2021/07/06 23:02:32;;;;;;;20.60;18.43;;;13.00;99.90;;;;;;6339593;22;20722;-82
2021/07/06 23:05:01;;;;;;;24.70;22.80;;;13.10;99.90;;;;;;6339762;22;20400;-82
2021/07/06 23:07:35;;;;;;;26.10;23.53;;;13.10;99.90;;;;;;6350453;22;20416;-83
2021/07/06 23:10:14;;;;;;;20.87;18.80;;;13.00;99.90;;;;;;6339750;22;20392;-84
2021/07/06 23:12:42;;;;;;;26.40;24.40;;;12.90;99.90;;;;;;6338350;22;20888;-83
2021/07/06 23:15:26;;;;;;;28.03;26.00;;;12.90;99.90;;;;;;6350668;22;20908;-84
2021/07/06 23:17:56;;;;;;;26.67;24.30;;;12.90;99.90;;;;;;6350506;22;20405;-82
2021/07/06 23:20:35;;;;;;;;;;;;;;;;;;;;;
2021/07/06 23:23:03;;;;;;;29.83;27.83;;;12.70;99.90;;;;;;6332792;22;20401;-84
2021/07/06 23:25:42;;;;;;;30.23;28.23;;;12.70;99.90;;;;;;6339692;22;20450;-83
2021/07/06 23:28:10;;;;;;;27.90;25.90;;;12.80;99.90;;;;;;6349625;22;20432;-82
2021/07/06 23:30:38;;;;;;;26.73;24.67;;;12.70;99.90;;;;;;6350673;22;20714;-82
2021/07/06 23:33:10;;;;;;;22.90;21.20;;;12.70;99.90;;;;;;6339929;22;20401;-82
2021/07/06 23:35:40;;;;;;;20.63;18.93;;;12.60;99.90;;;;;;6350270;22;20458;-82
2021/07/06 23:38:19;;;;;;;;;;;;;;;;;;;;;
2021/07/06 23:43:50;;;;;;;30.17;27.97;;;12.40;99.90;;;;;;6350166;22;20404;-83
2021/07/06 23:49:29;;;;;;;39.90;37.60;;;12.40;99.90;;;;;;6335912;22;20989;-83
2021/07/06 23:55:11;;;;;;;50.17;47.00;;;12.20;99.90;;;;;;6343448;22;20417;-82
